sensor_id;sensor_type;location;lat;lon;timestamp;temperature;humidity
20946;DHT22;10632;51.276;7.116;2022-12-13T00:01:10;-2.60;99.90
20946;DHT22;10632;51.276;7.116;2022-12-13T00:03:37;-2.60;99.90
20946;DHT22;10632;51.276;7.116;2022-12-13T00:06:04;-2.60;99.90
20946;DHT22;10632;51.276;7.116;2022-12-13T00:08:32;-2.60;99.90
20946;DHT22;10632;51.276;7.116;2022-12-13T00:10:59;-2.60;99.90
20946;DHT22;10632;51.276;7.116;2022-12-13T00:13:28;-2.70;99.90
20946;DHT22;10632;51.276;7.116;2022-12-13T00:15:55;-2.70;99.90
20946;DHT22;10632;51.276;7.116;2022-12-13T00:18:22;-2.60;99.90
20946;DHT22;10632;51.276;7.116;2022-12-13T00:20:49;-2.60;99.90
20946;DHT22;10632;51.276;7.116;2022-12-13T00:23:16;-2.60;99.90
20946;DHT22;10632;51.276;7.116;2022-12-13T00:25:43;-2.60;99.90
20946;DHT22;10632;51.276;7.116;2022-12-13T00:28:10;-2.60;99.90
20946;DHT22;10632;51.276;7.116;2022-12-13T00:30:39;-2.60;99.90
20946;DHT22;10632;51.276;7.116;2022-12-13T00:33:06;-2.60;99.90
20946;DHT22;10632;51.276;7.116;2022-12-13T00:35:33;-2.60;99.90
20946;DHT22;10632;51.276;7.116;2022-12-13T00:38:00;-2.60;99.90
20946;DHT22;10632;51.276;7.116;2022-12-13T00:40:27;-2.60;99.90
20946;DHT22;10632;51.276;7.116;2022-12-13T00:42:54;-2.60;99.90
20946;DHT22;10632;51.276;7.116;2022-12-13T00:45:21;-2.60;99.90
20946;DHT22;10632;51.276;7.116;2022-12-13T00:47:52;-2.60;99.90
20946;DHT22;10632;51.276;7.116;2022-12-13T00:50:20;-2.60;99.90
20946;DHT22;10632;51.276;7.116;2022-12-13T00:52:47;-2.60;99.90
20946;DHT22;10632;51.276;7.116;2022-12-13T00:55:14;-2.60;99.90
20946;DHT22;10632;51.276;7.116;2022-12-13T00:57:40;-2.60;99.90
20946;DHT22;10632;51.276;7.116;2022-12-13T01:00:08;-2.60;99.90
20946;DHT22;10632;51.276;7.116;2022-12-13T01:02:35;-2.60;99.90
20946;DHT22;10632;51.276;7.116;2022-12-13T01:05:04;-2.70;99.90
20946;DHT22;10632;51.276;7.116;2022-12-13T01:07:31;-2.60;99.90
20946;DHT22;10632;51.276;7.116;2022-12-13T01:09:58;-2.70;99.90
20946;DHT22;10632;51.276;7.116;2022-12-13T01:12:25;-2.70;99.90
20946;DHT22;10632;51.276;7.116;2022-12-13T01:14:52;-2.70;99.90
20946;DHT22;10632;51.276;7.116;2022-12-13T01:17:19;-2.70;99.90
20946;DHT22;10632;51.276;7.116;2022-12-13T01:19:46;-2.70;99.90
20946;DHT22;10632;51.276;7.116;2022-12-13T01:22:14;-2.80;99.90
20946;DHT22;10632;51.276;7.116;2022-12-13T01:24:41;-2.80;99.90
20946;DHT22;10632;51.276;7.116;2022-12-13T01:27:08;-2.80;99.90
20946;DHT22;10632;51.276;7.116;2022-12-13T01:29:35;-2.80;99.90
20946;DHT22;10632;51.276;7.116;2022-12-13T01:32:03;-2.90;99.90
20946;DHT22;10632;51.276;7.116;2022-12-13T01:34:30;-2.90;99.90
20946;DHT22;10632;51.276;7.116;2022-12-13T01:36:57;-2.90;99.90
20946;DHT22;10632;51.276;7.116;2022-12-13T01:39:25;-2.90;99.90
20946;DHT22;10632;51.276;7.116;2022-12-13T01:41:53;-2.90;99.90
20946;DHT22;10632;51.276;7.116;2022-12-13T01:47:37;-2.90;99.90
20946;DHT22;10632;51.276;7.116;2022-12-13T01:50:08;-3.00;99.90
20946;DHT22;10632;51.276;7.116;2022-12-13T01:52:37;-3.00;99.90
20946;DHT22;10632;51.276;7.116;2022-12-13T01:55:08;-3.00;99.90
20946;DHT22;10632;51.276;7.116;2022-12-13T01:57:37;-3.00;99.90
20946;DHT22;10632;51.276;7.116;2022-12-13T02:00:06;-3.00;99.90
20946;DHT22;10632;51.276;7.116;2022-12-13T02:02:33;-3.00;99.90
20946;DHT22;10632;51.276;7.116;2022-12-13T02:05:07;-3.00;99.90
20946;DHT22;10632;51.276;7.116;2022-12-13T02:07:37;-3.00;99.90
20946;DHT22;10632;51.276;7.116;2022-12-13T02:10:10;-3.00;99.90
20946;DHT22;10632;51.276;7.116;2022-12-13T02:12:39;-3.00;99.90
20946;DHT22;10632;51.276;7.116;2022-12-13T02:15:09;-3.00;99.90
20946;DHT22;10632;51.276;7.116;2022-12-13T02:17:50;-3.10;99.90
20946;DHT22;10632;51.276;7.116;2022-12-13T02:20:53;-3.00;99.90
20946;DHT22;10632;51.276;7.116;2022-12-13T02:26:56;-3.10;99.90
20946;DHT22;10632;51.276;7.116;2022-12-13T02:32:32;-3.10;99.90
20946;DHT22;10632;51.276;7.116;2022-12-13T02:35:06;-3.20;99.90
20946;DHT22;10632;51.276;7.116;2022-12-13T02:37:42;-3.20;99.90
20946;DHT22;10632;51.276;7.116;2022-12-13T02:40:20;-3.20;99.90
20946;DHT22;10632;51.276;7.116;2022-12-13T02:42:56;-3.20;99.90
20946;DHT22;10632;51.276;7.116;2022-12-13T02:45:28;-3.20;99.90
20946;DHT22;10632;51.276;7.116;2022-12-13T02:47:59;-3.30;99.90
20946;DHT22;10632;51.276;7.116;2022-12-13T02:50:28;-3.20;99.90
20946;DHT22;10632;51.276;7.116;2022-12-13T02:52:57;-3.20;99.90
20946;DHT22;10632;51.276;7.116;2022-12-13T02:55:24;-3.20;99.90
20946;DHT22;10632;51.276;7.116;2022-12-13T02:57:51;-3.30;99.90
20946;DHT22;10632;51.276;7.116;2022-12-13T03:00:20;-3.30;99.90
20946;DHT22;10632;51.276;7.116;2022-12-13T03:03:04;-3.30;99.90
20946;DHT22;10632;51.276;7.116;2022-12-13T03:05:38;-3.30;99.90
20946;DHT22;10632;51.276;7.116;2022-12-13T03:08:26;-3.30;99.90
20946;DHT22;10632;51.276;7.116;2022-12-13T03:11:02;-3.30;99.90
20946;DHT22;10632;51.276;7.116;2022-12-13T03:13:35;-3.40;99.90
20946;DHT22;10632;51.276;7.116;2022-12-13T03:16:08;-3.40;99.90
20946;DHT22;10632;51.276;7.116;2022-12-13T03:18:38;-3.40;99.90
20946;DHT22;10632;51.276;7.116;2022-12-13T03:21:08;-3.40;99.90
20946;DHT22;10632;51.276;7.116;2022-12-13T03:23:36;-3.40;99.90
20946;DHT22;10632;51.276;7.116;2022-12-13T03:26:07;-3.40;99.90
20946;DHT22;10632;51.276;7.116;2022-12-13T03:28:35;-3.40;99.90
20946;DHT22;10632;51.276;7.116;2022-12-13T03:31:02;-3.40;99.90
20946;DHT22;10632;51.276;7.116;2022-12-13T03:33:30;-3.40;99.90
20946;DHT22;10632;51.276;7.116;2022-12-13T03:35:58;-3.50;99.90
20946;DHT22;10632;51.276;7.116;2022-12-13T03:38:27;-3.50;99.90
20946;DHT22;10632;51.276;7.116;2022-12-13T03:40:58;-3.50;99.90
20946;DHT22;10632;51.276;7.116;2022-12-13T03:43:25;-3.50;99.90
20946;DHT22;10632;51.276;7.116;2022-12-13T03:45:52;-3.60;99.90
20946;DHT22;10632;51.276;7.116;2022-12-13T03:48:20;-3.60;99.90
20946;DHT22;10632;51.276;7.116;2022-12-13T03:50:47;-3.60;99.90
20946;DHT22;10632;51.276;7.116;2022-12-13T03:53:15;-3.60;99.90
20946;DHT22;10632;51.276;7.116;2022-12-13T03:55:42;-3.60;99.90
20946;DHT22;10632;51.276;7.116;2022-12-13T03:58:09;-3.60;99.90
20946;DHT22;10632;51.276;7.116;2022-12-13T04:00:36;-3.60;99.90
20946;DHT22;10632;51.276;7.116;2022-12-13T04:03:03;-3.70;99.90
20946;DHT22;10632;51.276;7.116;2022-12-13T04:05:30;-3.70;99.90
20946;DHT22;10632;51.276;7.116;2022-12-13T04:07:57;-3.70;99.90
20946;DHT22;10632;51.276;7.116;2022-12-13T04:10:26;-3.70;99.90
20946;DHT22;10632;51.276;7.116;2022-12-13T04:12:53;-3.70;99.90
20946;DHT22;10632;51.276;7.116;2022-12-13T04:15:38;-3.60;99.90
20946;DHT22;10632;51.276;7.116;2022-12-13T04:18:05;-3.70;99.90
20946;DHT22;10632;51.276;7.116;2022-12-13T04:20:32;-3.70;99.90
20946;DHT22;10632;51.276;7.116;2022-12-13T04:22:59;-3.70;99.90
20946;DHT22;10632;51.276;7.116;2022-12-13T04:25:27;-3.80;99.90
20946;DHT22;10632;51.276;7.116;2022-12-13T04:27:54;-3.80;99.90
20946;DHT22;10632;51.276;7.116;2022-12-13T04:30:21;-3.80;99.90
20946;DHT22;10632;51.276;7.116;2022-12-13T04:32:48;-3.80;99.90
20946;DHT22;10632;51.276;7.116;2022-12-13T04:35:15;-3.80;99.90
20946;DHT22;10632;51.276;7.116;2022-12-13T04:37:42;-3.90;99.90
20946;DHT22;10632;51.276;7.116;2022-12-13T04:40:09;-3.90;99.90
20946;DHT22;10632;51.276;7.116;2022-12-13T04:42:38;-3.90;99.90
20946;DHT22;10632;51.276;7.116;2022-12-13T04:45:06;-3.90;99.90
20946;DHT22;10632;51.276;7.116;2022-12-13T04:47:33;-3.90;99.90
20946;DHT22;10632;51.276;7.116;2022-12-13T04:50:00;-4.00;99.90
20946;DHT22;10632;51.276;7.116;2022-12-13T04:52:27;-4.00;99.90
20946;DHT22;10632;51.276;7.116;2022-12-13T04:54:54;-4.00;99.90
20946;DHT22;10632;51.276;7.116;2022-12-13T04:57:21;-4.00;99.90
20946;DHT22;10632;51.276;7.116;2022-12-13T04:59:50;-4.00;99.90
20946;DHT22;10632;51.276;7.116;2022-12-13T05:02:17;-4.00;99.90
20946;DHT22;10632;51.276;7.116;2022-12-13T05:04:44;-4.00;99.90
20946;DHT22;10632;51.276;7.116;2022-12-13T05:07:11;-3.90;99.90
20946;DHT22;10632;51.276;7.116;2022-12-13T05:09:38;-3.90;99.90
20946;DHT22;10632;51.276;7.116;2022-12-13T05:12:05;-3.90;99.90
20946;DHT22;10632;51.276;7.116;2022-12-13T05:14:32;-3.90;99.90
20946;DHT22;10632;51.276;7.116;2022-12-13T05:17:01;-3.90;99.90
20946;DHT22;10632;51.276;7.116;2022-12-13T05:19:28;-3.90;99.90
20946;DHT22;10632;51.276;7.116;2022-12-13T05:21:55;-4.00;99.90
20946;DHT22;10632;51.276;7.116;2022-12-13T05:24:22;-4.00;99.90
20946;DHT22;10632;51.276;7.116;2022-12-13T05:26:49;-4.00;99.90
20946;DHT22;10632;51.276;7.116;2022-12-13T05:29:16;-4.10;99.90
20946;DHT22;10632;51.276;7.116;2022-12-13T05:31:43;-4.10;99.90
20946;DHT22;10632;51.276;7.116;2022-12-13T05:34:11;-4.10;99.90
20946;DHT22;10632;51.276;7.116;2022-12-13T05:36:39;-4.10;99.90
20946;DHT22;10632;51.276;7.116;2022-12-13T05:39:07;-4.20;99.90
20946;DHT22;10632;51.276;7.116;2022-12-13T05:41:37;-4.20;99.90
20946;DHT22;10632;51.276;7.116;2022-12-13T05:44:04;-4.20;99.90
20946;DHT22;10632;51.276;7.116;2022-12-13T05:46:32;-4.20;99.90
20946;DHT22;10632;51.276;7.116;2022-12-13T05:48:59;-4.20;99.90
20946;DHT22;10632;51.276;7.116;2022-12-13T05:51:27;-4.20;99.90
20946;DHT22;10632;51.276;7.116;2022-12-13T05:53:54;-4.20;99.90
20946;DHT22;10632;51.276;7.116;2022-12-13T05:59:10;-4.30;99.90
20946;DHT22;10632;51.276;7.116;2022-12-13T06:01:40;-4.20;99.90
20946;DHT22;10632;51.276;7.116;2022-12-13T06:04:10;-4.20;99.90
20946;DHT22;10632;51.276;7.116;2022-12-13T06:06:39;-4.30;99.90
20946;DHT22;10632;51.276;7.116;2022-12-13T06:09:06;-4.30;99.90
20946;DHT22;10632;51.276;7.116;2022-12-13T06:11:33;-4.30;99.90
20946;DHT22;10632;51.276;7.116;2022-12-13T06:14:01;-4.30;99.90
20946;DHT22;10632;51.276;7.116;2022-12-13T06:16:29;-4.30;99.90
20946;DHT22;10632;51.276;7.116;2022-12-13T06:18:56;-4.40;99.90
20946;DHT22;10632;51.276;7.116;2022-12-13T06:21:24;-4.40;99.90
20946;DHT22;10632;51.276;7.116;2022-12-13T06:23:53;-4.40;99.90
20946;DHT22;10632;51.276;7.116;2022-12-13T06:26:21;-4.40;99.90
20946;DHT22;10632;51.276;7.116;2022-12-13T06:28:48;-4.50;99.90
20946;DHT22;10632;51.276;7.116;2022-12-13T06:31:17;-4.40;99.90
20946;DHT22;10632;51.276;7.116;2022-12-13T06:33:44;-4.50;99.90
20946;DHT22;10632;51.276;7.116;2022-12-13T06:36:21;-4.50;99.90
20946;DHT22;10632;51.276;7.116;2022-12-13T06:38:51;-4.50;99.90
20946;DHT22;10632;51.276;7.116;2022-12-13T06:41:19;-4.50;99.90
20946;DHT22;10632;51.276;7.116;2022-12-13T06:43:47;-4.40;99.90
20946;DHT22;10632;51.276;7.116;2022-12-13T06:46:17;-4.40;99.90
20946;DHT22;10632;51.276;7.116;2022-12-13T06:48:52;-4.40;99.90
20946;DHT22;10632;51.276;7.116;2022-12-13T06:51:22;-4.40;99.90
20946;DHT22;10632;51.276;7.116;2022-12-13T06:53:50;-4.40;99.90
20946;DHT22;10632;51.276;7.116;2022-12-13T06:56:18;-4.40;99.90
20946;DHT22;10632;51.276;7.116;2022-12-13T06:58:47;-4.40;99.90
20946;DHT22;10632;51.276;7.116;2022-12-13T07:01:16;-4.40;99.90
20946;DHT22;10632;51.276;7.116;2022-12-13T07:03:44;-4.40;99.90
20946;DHT22;10632;51.276;7.116;2022-12-13T07:06:17;-4.40;99.90
20946;DHT22;10632;51.276;7.116;2022-12-13T07:08:48;-4.40;99.90
20946;DHT22;10632;51.276;7.116;2022-12-13T07:11:19;-4.40;99.90
20946;DHT22;10632;51.276;7.116;2022-12-13T07:13:47;-4.50;99.90
20946;DHT22;10632;51.276;7.116;2022-12-13T07:16:14;-4.40;99.90
20946;DHT22;10632;51.276;7.116;2022-12-13T07:18:43;-4.40;99.90
20946;DHT22;10632;51.276;7.116;2022-12-13T07:21:12;-4.40;99.90
20946;DHT22;10632;51.276;7.116;2022-12-13T07:23:40;-4.40;99.90
20946;DHT22;10632;51.276;7.116;2022-12-13T07:26:13;-4.30;99.90
20946;DHT22;10632;51.276;7.116;2022-12-13T07:28:45;-4.30;99.90
20946;DHT22;10632;51.276;7.116;2022-12-13T07:31:13;-4.30;99.90
20946;DHT22;10632;51.276;7.116;2022-12-13T07:33:43;-4.40;99.90
20946;DHT22;10632;51.276;7.116;2022-12-13T07:36:16;-4.30;99.90
20946;DHT22;10632;51.276;7.116;2022-12-13T07:38:48;-4.30;99.90
20946;DHT22;10632;51.276;7.116;2022-12-13T07:41:16;-4.30;99.90
20946;DHT22;10632;51.276;7.116;2022-12-13T07:43:44;-4.30;99.90
20946;DHT22;10632;51.276;7.116;2022-12-13T07:46:12;-4.30;99.90
20946;DHT22;10632;51.276;7.116;2022-12-13T07:48:39;-4.30;99.90
20946;DHT22;10632;51.276;7.116;2022-12-13T07:51:07;-4.30;99.90
20946;DHT22;10632;51.276;7.116;2022-12-13T07:53:39;-4.30;99.90
20946;DHT22;10632;51.276;7.116;2022-12-13T07:56:08;-4.20;99.90
20946;DHT22;10632;51.276;7.116;2022-12-13T07:58:37;-4.20;99.90
20946;DHT22;10632;51.276;7.116;2022-12-13T08:01:11;-4.20;99.90
20946;DHT22;10632;51.276;7.116;2022-12-13T08:03:39;-4.10;99.90
20946;DHT22;10632;51.276;7.116;2022-12-13T08:06:08;-4.20;99.90
20946;DHT22;10632;51.276;7.116;2022-12-13T08:08:36;-4.30;99.90
20946;DHT22;10632;51.276;7.116;2022-12-13T08:11:05;-4.20;99.90
20946;DHT22;10632;51.276;7.116;2022-12-13T08:13:34;-4.10;99.90
20946;DHT22;10632;51.276;7.116;2022-12-13T08:16:11;-4.10;99.90
20946;DHT22;10632;51.276;7.116;2022-12-13T08:18:44;-4.10;99.90
20946;DHT22;10632;51.276;7.116;2022-12-13T08:21:24;-4.00;99.90
20946;DHT22;10632;51.276;7.116;2022-12-13T08:24:00;-4.00;99.90
20946;DHT22;10632;51.276;7.116;2022-12-13T08:26:27;-4.00;99.90
20946;DHT22;10632;51.276;7.116;2022-12-13T08:28:57;-4.00;99.90
20946;DHT22;10632;51.276;7.116;2022-12-13T08:31:30;-4.00;99.90
20946;DHT22;10632;51.276;7.116;2022-12-13T08:34:01;-3.90;99.90
20946;DHT22;10632;51.276;7.116;2022-12-13T08:36:28;-3.90;99.90
20946;DHT22;10632;51.276;7.116;2022-12-13T08:39:06;-3.80;99.90
20946;DHT22;10632;51.276;7.116;2022-12-13T08:41:39;-3.80;99.90
20946;DHT22;10632;51.276;7.116;2022-12-13T08:44:06;-3.70;99.90
20946;DHT22;10632;51.276;7.116;2022-12-13T08:46:40;-3.70;99.90
20946;DHT22;10632;51.276;7.116;2022-12-13T08:49:09;-3.70;99.90
20946;DHT22;10632;51.276;7.116;2022-12-13T08:51:50;-3.60;99.90
20946;DHT22;10632;51.276;7.116;2022-12-13T08:54:20;-3.60;99.90
20946;DHT22;10632;51.276;7.116;2022-12-13T08:56:48;-3.50;99.90
20946;DHT22;10632;51.276;7.116;2022-12-13T08:59:15;-3.50;99.90
20946;DHT22;10632;51.276;7.116;2022-12-13T09:01:42;-3.40;99.90
20946;DHT22;10632;51.276;7.116;2022-12-13T09:04:11;-3.40;99.90
20946;DHT22;10632;51.276;7.116;2022-12-13T09:06:41;-3.30;99.90
20946;DHT22;10632;51.276;7.116;2022-12-13T09:09:11;-3.40;99.90
20946;DHT22;10632;51.276;7.116;2022-12-13T09:11:44;-3.20;99.90
20946;DHT22;10632;51.276;7.116;2022-12-13T09:14:11;-3.20;99.90
20946;DHT22;10632;51.276;7.116;2022-12-13T09:16:39;-3.10;99.90
20946;DHT22;10632;51.276;7.116;2022-12-13T09:19:07;-3.10;99.90
20946;DHT22;10632;51.276;7.116;2022-12-13T09:21:36;-3.00;99.90
20946;DHT22;10632;51.276;7.116;2022-12-13T09:24:06;-3.00;99.90
20946;DHT22;10632;51.276;7.116;2022-12-13T09:26:35;-3.00;99.90
20946;DHT22;10632;51.276;7.116;2022-12-13T09:29:03;-2.90;99.90
20946;DHT22;10632;51.276;7.116;2022-12-13T09:31:30;-2.90;99.90
20946;DHT22;10632;51.276;7.116;2022-12-13T09:34:00;-2.80;99.90
20946;DHT22;10632;51.276;7.116;2022-12-13T09:36:28;-2.80;99.90
20946;DHT22;10632;51.276;7.116;2022-12-13T09:38:56;-2.80;99.90
20946;DHT22;10632;51.276;7.116;2022-12-13T09:41:28;-2.60;99.90
20946;DHT22;10632;51.276;7.116;2022-12-13T09:43:59;-2.50;99.90
20946;DHT22;10632;51.276;7.116;2022-12-13T09:46:30;-2.50;99.90
20946;DHT22;10632;51.276;7.116;2022-12-13T09:49:01;-2.50;99.90
20946;DHT22;10632;51.276;7.116;2022-12-13T09:51:31;-2.50;99.90
20946;DHT22;10632;51.276;7.116;2022-12-13T09:54:00;-2.40;99.90
20946;DHT22;10632;51.276;7.116;2022-12-13T09:56:28;-2.40;99.90
20946;DHT22;10632;51.276;7.116;2022-12-13T09:58:56;-2.40;99.90
20946;DHT22;10632;51.276;7.116;2022-12-13T10:01:28;-2.40;99.90
20946;DHT22;10632;51.276;7.116;2022-12-13T10:03:58;-2.30;99.90
20946;DHT22;10632;51.276;7.116;2022-12-13T10:06:27;-2.30;99.90
20946;DHT22;10632;51.276;7.116;2022-12-13T10:09:00;-2.30;99.90
20946;DHT22;10632;51.276;7.116;2022-12-13T10:11:28;-2.30;99.90
20946;DHT22;10632;51.276;7.116;2022-12-13T10:13:58;-2.30;99.90
20946;DHT22;10632;51.276;7.116;2022-12-13T10:16:38;-2.20;99.90
20946;DHT22;10632;51.276;7.116;2022-12-13T10:19:23;-2.20;99.90
20946;DHT22;10632;51.276;7.116;2022-12-13T10:21:54;-2.20;99.90
20946;DHT22;10632;51.276;7.116;2022-12-13T10:24:24;-2.10;99.90
20946;DHT22;10632;51.276;7.116;2022-12-13T10:26:56;-2.10;99.90
20946;DHT22;10632;51.276;7.116;2022-12-13T10:29:25;-2.00;99.90
20946;DHT22;10632;51.276;7.116;2022-12-13T10:31:54;-2.00;99.90
20946;DHT22;10632;51.276;7.116;2022-12-13T10:34:23;-2.00;99.90
20946;DHT22;10632;51.276;7.116;2022-12-13T10:36:51;-1.90;99.90
20946;DHT22;10632;51.276;7.116;2022-12-13T10:39:37;-2.00;99.90
20946;DHT22;10632;51.276;7.116;2022-12-13T10:42:11;-1.90;99.90
20946;DHT22;10632;51.276;7.116;2022-12-13T10:44:38;-1.90;99.90
20946;DHT22;10632;51.276;7.116;2022-12-13T10:47:14;-1.80;99.90
20946;DHT22;10632;51.276;7.116;2022-12-13T10:49:49;-1.80;99.90
20946;DHT22;10632;51.276;7.116;2022-12-13T10:52:27;-1.70;99.90
20946;DHT22;10632;51.276;7.116;2022-12-13T10:54:57;-1.70;99.90
20946;DHT22;10632;51.276;7.116;2022-12-13T10:57:26;-1.60;99.90
20946;DHT22;10632;51.276;7.116;2022-12-13T10:59:54;-1.60;99.90
20946;DHT22;10632;51.276;7.116;2022-12-13T11:02:28;-1.60;99.90
20946;DHT22;10632;51.276;7.116;2022-12-13T11:04:56;-1.50;99.90
20946;DHT22;10632;51.276;7.116;2022-12-13T11:07:27;-1.50;99.90
20946;DHT22;10632;51.276;7.116;2022-12-13T11:09:55;-1.40;99.90
20946;DHT22;10632;51.276;7.116;2022-12-13T11:12:24;-1.40;99.90
20946;DHT22;10632;51.276;7.116;2022-12-13T11:14:53;-1.40;99.90
20946;DHT22;10632;51.276;7.116;2022-12-13T11:17:24;-1.30;99.90
20946;DHT22;10632;51.276;7.116;2022-12-13T11:19:54;-1.30;99.90
20946;DHT22;10632;51.276;7.116;2022-12-13T11:22:25;-1.20;99.90
20946;DHT22;10632;51.276;7.116;2022-12-13T11:25:00;-1.20;99.90
20946;DHT22;10632;51.276;7.116;2022-12-13T11:27:44;-1.10;99.90
20946;DHT22;10632;51.276;7.116;2022-12-13T11:30:18;-1.10;99.90
20946;DHT22;10632;51.276;7.116;2022-12-13T11:33:20;-1.00;99.90
20946;DHT22;10632;51.276;7.116;2022-12-13T11:35:59;-0.90;99.90
20946;DHT22;10632;51.276;7.116;2022-12-13T11:38:35;-0.80;99.90
20946;DHT22;10632;51.276;7.116;2022-12-13T11:41:11;-0.80;99.90
20946;DHT22;10632;51.276;7.116;2022-12-13T11:43:45;-0.70;99.90
20946;DHT22;10632;51.276;7.116;2022-12-13T11:46:18;-0.70;99.90
20946;DHT22;10632;51.276;7.116;2022-12-13T11:48:50;-0.60;99.90
20946;DHT22;10632;51.276;7.116;2022-12-13T11:51:25;-0.50;99.90
20946;DHT22;10632;51.276;7.116;2022-12-13T11:53:58;-0.50;99.90
20946;DHT22;10632;51.276;7.116;2022-12-13T11:56:31;-0.50;99.90
20946;DHT22;10632;51.276;7.116;2022-12-13T11:59:02;-0.40;99.90
20946;DHT22;10632;51.276;7.116;2022-12-13T12:01:38;-0.30;99.90
20946;DHT22;10632;51.276;7.116;2022-12-13T12:04:13;-0.30;99.90
20946;DHT22;10632;51.276;7.116;2022-12-13T12:06:46;-0.20;99.90
20946;DHT22;10632;51.276;7.116;2022-12-13T12:09:18;0.00;99.90
20946;DHT22;10632;51.276;7.116;2022-12-13T12:11:54;0.20;99.90
20946;DHT22;10632;51.276;7.116;2022-12-13T12:14:34;0.30;99.90
20946;DHT22;10632;51.276;7.116;2022-12-13T12:17:03;0.30;99.90
20946;DHT22;10632;51.276;7.116;2022-12-13T12:19:36;0.40;99.90
20946;DHT22;10632;51.276;7.116;2022-12-13T12:22:16;0.40;99.90
20946;DHT22;10632;51.276;7.116;2022-12-13T12:24:57;0.50;99.90
20946;DHT22;10632;51.276;7.116;2022-12-13T12:27:36;0.50;99.90
20946;DHT22;10632;51.276;7.116;2022-12-13T12:30:13;0.50;99.90
20946;DHT22;10632;51.276;7.116;2022-12-13T12:32:47;0.50;99.90
20946;DHT22;10632;51.276;7.116;2022-12-13T12:35:43;0.70;99.90
20946;DHT22;10632;51.276;7.116;2022-12-13T12:41:24;0.90;99.90
20946;DHT22;10632;51.276;7.116;2022-12-13T12:44:03;1.00;99.90
20946;DHT22;10632;51.276;7.116;2022-12-13T12:46:49;1.10;99.90
20946;DHT22;10632;51.276;7.116;2022-12-13T12:49:40;1.40;99.90
20946;DHT22;10632;51.276;7.116;2022-12-13T12:52:18;2.20;99.90
20946;DHT22;10632;51.276;7.116;2022-12-13T12:54:56;3.10;99.90
20946;DHT22;10632;51.276;7.116;2022-12-13T12:57:36;4.00;99.90
20946;DHT22;10632;51.276;7.116;2022-12-13T13:00:11;4.80;99.90
20946;DHT22;10632;51.276;7.116;2022-12-13T13:02:43;5.40;99.90
20946;DHT22;10632;51.276;7.116;2022-12-13T13:05:20;5.60;99.90
20946;DHT22;10632;51.276;7.116;2022-12-13T13:07:52;5.50;99.90
20946;DHT22;10632;51.276;7.116;2022-12-13T13:10:21;5.30;99.90
20946;DHT22;10632;51.276;7.116;2022-12-13T13:12:49;5.00;99.90
20946;DHT22;10632;51.276;7.116;2022-12-13T13:15:55;4.70;99.90
20946;DHT22;10632;51.276;7.116;2022-12-13T13:18:42;4.30;99.90
20946;DHT22;10632;51.276;7.116;2022-12-13T13:21:31;4.00;99.90
20946;DHT22;10632;51.276;7.116;2022-12-13T13:24:09;3.80;99.90
20946;DHT22;10632;51.276;7.116;2022-12-13T13:26:43;3.50;99.90
20946;DHT22;10632;51.276;7.116;2022-12-13T13:29:33;3.40;99.90
20946;DHT22;10632;51.276;7.116;2022-12-13T13:32:09;3.20;99.90
20946;DHT22;10632;51.276;7.116;2022-12-13T13:34:48;3.10;99.90
20946;DHT22;10632;51.276;7.116;2022-12-13T13:37:27;3.00;99.90
20946;DHT22;10632;51.276;7.116;2022-12-13T13:39:58;2.80;99.90
20946;DHT22;10632;51.276;7.116;2022-12-13T13:42:27;2.70;99.90
20946;DHT22;10632;51.276;7.116;2022-12-13T13:45:17;2.50;99.90
20946;DHT22;10632;51.276;7.116;2022-12-13T13:48:04;2.30;99.90
20946;DHT22;10632;51.276;7.116;2022-12-13T14:00:12;1.50;99.90
20946;DHT22;10632;51.276;7.116;2022-12-13T14:03:16;1.50;99.90
20946;DHT22;10632;51.276;7.116;2022-12-13T14:06:22;1.50;99.90
20946;DHT22;10632;51.276;7.116;2022-12-13T14:09:24;1.40;99.90
20946;DHT22;10632;51.276;7.116;2022-12-13T14:21:48;0.90;99.90
20946;DHT22;10632;51.276;7.116;2022-12-13T14:24:24;0.80;99.90
20946;DHT22;10632;51.276;7.116;2022-12-13T14:27:08;0.80;99.90
20946;DHT22;10632;51.276;7.116;2022-12-13T14:29:40;1.00;99.90
20946;DHT22;10632;51.276;7.116;2022-12-13T14:32:08;1.00;99.90
20946;DHT22;10632;51.276;7.116;2022-12-13T14:34:37;0.90;99.90
20946;DHT22;10632;51.276;7.116;2022-12-13T14:37:20;0.90;99.90
20946;DHT22;10632;51.276;7.116;2022-12-13T14:39:48;0.80;99.90
20946;DHT22;10632;51.276;7.116;2022-12-13T14:42:21;0.70;99.90
20946;DHT22;10632;51.276;7.116;2022-12-13T14:44:52;0.50;99.90
20946;DHT22;10632;51.276;7.116;2022-12-13T14:47:21;0.40;99.90
20946;DHT22;10632;51.276;7.116;2022-12-13T14:49:52;0.30;99.90
20946;DHT22;10632;51.276;7.116;2022-12-13T14:52:23;0.30;99.90
20946;DHT22;10632;51.276;7.116;2022-12-13T14:54:52;0.20;99.90
20946;DHT22;10632;51.276;7.116;2022-12-13T14:57:29;0.20;99.90
20946;DHT22;10632;51.276;7.116;2022-12-13T14:59:58;0.20;99.90
20946;DHT22;10632;51.276;7.116;2022-12-13T15:02:27;0.10;99.90
20946;DHT22;10632;51.276;7.116;2022-12-13T15:04:57;0.10;99.90
20946;DHT22;10632;51.276;7.116;2022-12-13T15:07:29;0.00;99.90
20946;DHT22;10632;51.276;7.116;2022-12-13T15:09:59;0.00;99.90
20946;DHT22;10632;51.276;7.116;2022-12-13T15:12:26;0.00;99.90
20946;DHT22;10632;51.276;7.116;2022-12-13T15:14:57;-0.10;99.90
20946;DHT22;10632;51.276;7.116;2022-12-13T15:17:31;-0.10;99.90
20946;DHT22;10632;51.276;7.116;2022-12-13T15:19:59;-0.10;99.90
20946;DHT22;10632;51.276;7.116;2022-12-13T15:22:28;-0.20;99.90
20946;DHT22;10632;51.276;7.116;2022-12-13T15:24:57;-0.20;99.90
20946;DHT22;10632;51.276;7.116;2022-12-13T15:27:29;-0.30;99.90
20946;DHT22;10632;51.276;7.116;2022-12-13T15:29:56;-0.30;99.90
20946;DHT22;10632;51.276;7.116;2022-12-13T15:32:28;-0.40;99.90
20946;DHT22;10632;51.276;7.116;2022-12-13T15:35:14;-0.40;99.90
20946;DHT22;10632;51.276;7.116;2022-12-13T15:37:45;-0.50;99.90
20946;DHT22;10632;51.276;7.116;2022-12-13T15:40:13;-0.50;99.90
20946;DHT22;10632;51.276;7.116;2022-12-13T15:42:44;-0.50;99.90
20946;DHT22;10632;51.276;7.116;2022-12-13T15:45:20;-0.60;99.90
20946;DHT22;10632;51.276;7.116;2022-12-13T15:47:49;-0.60;99.90
20946;DHT22;10632;51.276;7.116;2022-12-13T15:50:29;-0.70;99.90
20946;DHT22;10632;51.276;7.116;2022-12-13T15:53:00;-0.70;99.90
20946;DHT22;10632;51.276;7.116;2022-12-13T15:55:33;-0.70;99.90
20946;DHT22;10632;51.276;7.116;2022-12-13T15:58:01;-0.70;99.90
20946;DHT22;10632;51.276;7.116;2022-12-13T16:00:29;-0.80;99.90
20946;DHT22;10632;51.276;7.116;2022-12-13T16:02:59;-0.80;99.90
20946;DHT22;10632;51.276;7.116;2022-12-13T16:05:33;-0.80;99.90
20946;DHT22;10632;51.276;7.116;2022-12-13T16:08:03;-0.90;99.90
20946;DHT22;10632;51.276;7.116;2022-12-13T16:10:31;-0.90;99.90
20946;DHT22;10632;51.276;7.116;2022-12-13T16:13:01;-0.90;99.90
20946;DHT22;10632;51.276;7.116;2022-12-13T16:15:30;-0.90;99.90
20946;DHT22;10632;51.276;7.116;2022-12-13T16:18:11;-1.00;99.90
20946;DHT22;10632;51.276;7.116;2022-12-13T16:20:40;-1.00;99.90
20946;DHT22;10632;51.276;7.116;2022-12-13T16:23:09;-1.00;99.90
20946;DHT22;10632;51.276;7.116;2022-12-13T16:25:40;-1.00;99.90
20946;DHT22;10632;51.276;7.116;2022-12-13T16:28:09;-1.00;99.90
20946;DHT22;10632;51.276;7.116;2022-12-13T16:31:00;-1.00;99.90
20946;DHT22;10632;51.276;7.116;2022-12-13T16:33:27;-1.00;99.90